Time;durP1;ratioP1;P1;durP2;ratioP2;P2;SDS_P1;SDS_P2;PMS_P1;PMS_P2;Temp;Humidity;BMP_temperature;BMP_pressure;BME280_temperature;BME280_humidity;BME280_pressure;Samples;Min_cycle;Max_cycle;Signal;HPM_P1;HPM_P2
2023/06/14 00:02:10;;;;;;;2.50;1.50;;;;;;;25.12;57.04;98837.31;4953889;29;20070;-77
2023/06/14 00:04:37;;;;;;;2.67;1.30;;;;;;;25.09;56.94;98837.59;4953296;29;20463;-76
2023/06/14 00:07:03;;;;;;;3.10;1.50;;;;;;;25.11;56.98;98837.44;4953699;29;20035;-77
2023/06/14 00:09:28;;;;;;;2.88;1.40;;;;;;;25.11;57.06;98845.44;4953875;29;20027;-78
2023/06/14 00:11:54;;;;;;;3.10;1.60;;;;;;;25.09;56.93;98837.59;4953777;29;20396;-77
2023/06/14 00:14:19;;;;;;;2.33;1.48;;;;;;;25.09;56.92;98842.94;4936568;29;20052;-77
2023/06/14 00:16:45;;;;;;;2.75;1.60;;;;;;;25.11;57.08;98838.28;4953093;29;20027;-77
2023/06/14 00:19:10;;;;;;;3.33;1.60;;;;;;;25.07;57.14;98844.88;4953653;28;20376;-76
2023/06/14 00:21:38;;;;;;;2.88;1.40;;;;;;;25.05;57.23;98831.66;4953679;28;20054;-77
2023/06/14 00:24:05;;;;;;;2.70;1.55;;;;;;;25.06;56.96;98829.84;4953602;28;20035;-76
2023/06/14 00:26:30;;;;;;;2.47;1.52;;;;;;;25.05;56.85;98836.16;4953532;28;20053;-77
2023/06/14 00:28:56;;;;;;;3.25;1.73;;;;;;;25.04;57.32;98824.63;4953311;29;20476;-77
2023/06/14 00:31:25;;;;;;;1.88;1.40;;;;;;;25.05;57.02;98826.31;4952990;28;20027;-77
2023/06/14 00:33:50;;;;;;;3.75;1.83;;;;;;;25.07;57.13;98820.84;4936297;29;20387;-77
2023/06/14 00:36:15;;;;;;;3.05;1.75;;;;;;;25.05;56.93;98825.50;4953122;29;20026;-76
2023/06/14 00:38:41;;;;;;;3.67;1.73;;;;;;;25.03;57.30;98816.78;4956490;28;20032;-76
2023/06/14 00:41:06;;;;;;;3.53;1.85;;;;;;;25.03;57.20;98817.63;4957213;29;20027;-77
2023/06/14 00:43:32;;;;;;;2.17;1.40;;;;;;;25.04;56.90;98815.81;4956913;29;20488;-77
2023/06/14 00:45:58;;;;;;;3.45;1.80;;;;;;;25.02;56.95;98810.59;4956700;29;20039;-77
2023/06/14 00:48:24;;;;;;;2.97;1.75;;;;;;;25.01;56.87;98818.72;4949621;29;20027;-77
2023/06/14 00:50:52;;;;;;;3.05;1.90;;;;;;;25.03;57.16;98822.13;4956937;28;20030;-77
2023/06/14 00:53:20;;;;;;;3.55;2.10;;;;;;;25.03;57.14;98816.78;4956858;28;20031;-77
2023/06/14 00:55:46;;;;;;;3.53;2.20;;;;;;;25.00;57.24;98811.72;4956776;28;20047;-76
2023/06/14 00:58:12;;;;;;;3.65;2.10;;;;;;;24.99;56.81;98816.19;4956708;29;20066;-76
2023/06/14 01:00:37;;;;;;;3.22;2.10;;;;;;;24.99;57.26;98812.69;4956448;29;20015;-77
2023/06/14 01:03:03;;;;;;;4.47;2.00;;;;;;;24.99;57.25;98804.69;4956756;29;20019;-77
2023/06/14 01:05:30;;;;;;;3.55;2.10;;;;;;;24.98;57.08;98813.69;4956574;29;20099;-76
2023/06/14 01:08:22;;;;;;;3.60;2.25;;;;;;;24.98;57.22;98805.66;4956704;29;20031;-77
2023/06/14 01:10:56;;;;;;;4.35;2.10;;;;;;;24.97;56.93;98811.97;4956443;29;20058;-78
2023/06/14 01:13:29;;;;;;;3.35;2.20;;;;;;;24.95;57.02;98809.47;4956287;28;20538;-77
2023/06/14 01:15:55;;;;;;;3.67;2.25;;;;;;;24.93;57.09;98817.59;4956099;28;20031;-77
2023/06/14 01:18:23;;;;;;;3.65;2.30;;;;;;;24.93;57.31;98808.72;4956144;28;20069;-77
2023/06/14 01:20:49;;;;;;;3.65;2.17;;;;;;;24.94;57.23;98808.59;4956100;28;20086;-76
2023/06/14 01:23:20;;;;;;;3.80;2.50;;;;;;;24.93;57.28;98811.41;4956147;29;20031;-77
2023/06/14 01:25:46;;;;;;;3.72;2.15;;;;;;;24.93;57.12;98809.59;4955794;28;20031;-77
2023/06/14 01:28:14;;;;;;;3.97;2.35;;;;;;;24.93;57.11;98817.59;4956191;29;20031;-76
2023/06/14 01:30:46;;;;;;;3.80;2.38;;;;;;;24.92;56.96;98810.56;4955787;28;20110;-77
2023/06/14 01:33:14;;;;;;;3.95;2.10;;;;;;;24.91;57.55;98808.88;4956227;29;20027;-77
2023/06/14 01:35:44;;;;;;;4.05;2.50;;;;;;;24.92;57.00;98817.72;4956109;29;20077;-76
2023/06/14 01:38:10;;;;;;;3.60;2.40;;;;;;;24.91;57.42;98813.38;4955930;29;20524;-77
2023/06/14 01:40:36;;;;;;;3.95;2.30;;;;;;;24.91;57.26;98816.88;4955896;29;20110;-77
2023/06/14 01:43:03;;;;;;;3.28;2.20;;;;;;;24.90;57.06;98814.34;4955769;29;20064;-77
2023/06/14 01:45:29;;;;;;;4.18;2.63;;;;;;;24.88;57.14;98825.16;4955659;29;20623;-77
2023/06/14 01:47:55;;;;;;;4.88;2.85;;;;;;;24.88;57.41;98818.97;4955999;29;20388;-76
2023/06/14 01:50:21;;;;;;;4.35;2.70;;;;;;;24.85;57.69;98814.75;4954923;28;20027;-77
2023/06/14 01:52:46;;;;;;;4.00;2.38;;;;;;;24.85;57.40;98817.44;4955645;28;20428;-77
2023/06/14 01:55:11;;;;;;;3.22;2.30;;;;;;;24.81;57.61;98813.34;4954450;29;20046;-77
2023/06/14 01:57:37;;;;;;;4.15;2.83;;;;;;;24.85;57.55;98820.09;4955464;28;20507;-77
2023/06/14 02:00:06;;;;;;;3.88;2.72;;;;;;;24.82;57.53;98820.34;4955455;28;20024;-77
2023/06/14 02:02:31;;;;;;;4.30;2.85;;;;;;;24.83;57.51;98811.38;4955398;28;20027;-77
2023/06/14 02:04:57;;;;;;;4.25;2.72;;;;;;;24.81;57.75;98813.34;4955796;28;20027;-77
2023/06/14 02:07:23;;;;;;;3.95;2.90;;;;;;;24.83;57.57;98816.69;4955545;28;20027;-77
2023/06/14 02:09:48;;;;;;;5.60;2.83;;;;;;;24.83;57.83;98816.69;4955685;28;20027;-76
2023/06/14 02:12:14;;;;;;;4.90;2.67;;;;;;;24.82;57.87;98809.69;4955576;28;20035;-77
2023/06/14 02:14:39;;;;;;;3.80;2.65;;;;;;;24.80;57.79;98822.28;4954978;28;20563;-76
2023/06/14 02:17:06;;;;;;;5.00;3.13;;;;;;;24.78;57.66;98816.22;4955547;29;20034;-77
2023/06/14 02:19:31;;;;;;;4.55;2.83;;;;;;;24.79;57.95;98809.94;4955154;29;20609;-76
2023/06/14 02:21:57;;;;;;;5.05;2.70;;;;;;;24.78;57.73;98808.22;4937945;29;20039;-77
2023/06/14 02:24:23;;;;;;;5.53;3.22;;;;;;;24.77;57.72;98804.72;4955202;29;20060;-77
2023/06/14 02:26:49;;;;;;;5.63;2.70;;;;;;;24.77;57.83;98806.53;4955127;28;20148;-77
2023/06/14 02:29:14;;;;;;;3.53;2.30;;;;;;;24.78;57.55;98808.22;4954846;28;20073;-77
2023/06/14 02:31:40;;;;;;;5.72;2.78;;;;;;;24.78;57.67;98802.88;4955023;28;20019;-77
2023/06/14 02:34:08;;;;;;;4.68;2.65;;;;;;;24.75;57.80;98801.31;4954607;29;20031;-76
2023/06/14 02:36:34;;;;;;;5.20;2.95;;;;;;;24.78;57.47;98811.75;4955119;29;20028;-76
2023/06/14 02:39:00;;;;;;;4.05;2.85;;;;;;;24.76;57.87;98804.84;4954908;29;20027;-77
2023/06/14 02:41:26;;;;;;;4.85;3.45;;;;;;;24.75;57.59;98804.00;4954945;29;20027;-76
2023/06/14 02:43:52;;;;;;;3.95;2.60;;;;;;;24.74;57.70;98804.16;4954489;29;20027;-77
2023/06/14 02:46:17;;;;;;;3.85;2.60;;;;;;;24.73;57.70;98800.63;4954675;29;20102;-77
2023/06/14 02:48:43;;;;;;;4.47;2.88;;;;;;;24.71;57.97;98797.25;4937408;29;20031;-77
2023/06/14 02:51:09;;;;;;;4.75;2.88;;;;;;;24.73;57.89;98802.44;4954580;29;20062;-77
2023/06/14 02:53:36;;;;;;;4.80;3.10;;;;;;;24.73;58.02;98810.44;4954491;29;20114;-76
2023/06/14 02:56:03;;;;;;;6.82;3.10;;;;;;;24.72;57.91;98798.09;4954364;29;20051;-77
2023/06/14 02:58:29;;;;;;;5.10;3.20;;;;;;;24.74;57.94;98812.16;4954490;28;20038;-77
2023/06/14 03:00:55;;;;;;;4.30;2.70;;;;;;;24.72;57.83;98800.75;4954495;28;20090;-77
2023/06/14 03:03:21;;;;;;;4.38;2.83;;;;;;;24.73;57.77;98810.44;4953293;29;20079;-77
2023/06/14 03:05:49;;;;;;;4.38;2.70;;;;;;;24.71;57.79;98807.06;4954284;28;20381;-76
2023/06/14 03:08:19;;;;;;;5.25;3.28;;;;;;;24.74;57.80;98812.16;4954576;28;20028;-77
2023/06/14 03:10:48;;;;;;;5.32;2.92;;;;;;;24.72;57.79;98806.09;4954486;28;20361;-77
2023/06/14 03:13:15;;;;;;;4.55;2.88;;;;;;;24.69;57.70;98809.03;4954382;28;20027;-77
2023/06/14 03:15:41;;;;;;;4.15;2.75;;;;;;;24.70;58.05;98822.25;4954508;28;20031;-77
2023/06/14 03:18:11;;;;;;;4.18;2.80;;;;;;;24.71;57.89;98823.09;4954445;28;20023;-76
2023/06/14 03:20:37;;;;;;;4.28;2.80;;;;;;;24.67;57.71;98822.50;4954294;28;20054;-77
2023/06/14 03:23:06;;;;;;;3.78;2.80;;;;;;;24.70;57.98;98826.72;4954394;29;20488;-76
2023/06/14 03:25:32;;;;;;;5.88;3.30;;;;;;;24.70;57.63;98824.06;4953785;29;20031;-77
2023/06/14 03:27:58;;;;;;;4.95;2.90;;;;;;;24.63;58.07;98824.59;4954291;29;20027;-76
2023/06/14 03:30:24;;;;;;;4.72;3.10;;;;;;;24.64;58.09;98822.75;4954278;29;20030;-76
2023/06/14 03:32:51;;;;;;;4.05;2.92;;;;;;;24.64;57.92;98831.63;4953508;28;20047;-78
2023/06/14 03:35:17;;;;;;;4.38;3.35;;;;;;;24.65;57.98;98835.97;4954265;28;20031;-77
2023/06/14 03:37:46;;;;;;;4.53;2.70;;;;;;;24.66;57.79;98829.66;4954215;28;20110;-77
2023/06/14 03:40:15;;;;;;;4.85;2.88;;;;;;;24.69;57.72;98835.72;4953827;28;20023;-77
2023/06/14 03:42:41;;;;;;;4.63;3.03;;;;;;;24.67;57.72;98823.38;4954039;28;20475;-76
2023/06/14 03:45:07;;;;;;;3.83;2.92;;;;;;;24.69;57.66;98830.38;4953952;28;20106;-77
2023/06/14 03:47:34;;;;;;;5.00;3.05;;;;;;;24.66;57.87;98828.81;4953916;28;20579;-76
2023/06/14 03:50:01;;;;;;;5.18;2.90;;;;;;;24.66;57.60;98843.00;4954280;28;20047;-76
2023/06/14 03:52:26;;;;;;;3.70;2.83;;;;;;;24.66;57.78;98843.00;4953878;29;20031;-76
2023/06/14 03:54:52;;;;;;;4.32;3.10;;;;;;;24.66;57.71;98848.31;4953736;29;20391;-77
2023/06/14 03:57:18;;;;;;;4.22;2.88;;;;;;;24.65;57.99;98851.16;4953815;29;20538;-76
2023/06/14 03:59:43;;;;;;;3.63;2.72;;;;;;;24.66;57.69;98859.00;4944976;29;20031;-76
2023/06/14 04:02:09;;;;;;;4.82;2.85;;;;;;;24.63;57.62;98848.59;4953854;28;20023;-77
2023/06/14 04:04:35;;;;;;;4.65;2.80;;;;;;;24.64;57.69;98854.75;4936799;29;20083;-77
2023/06/14 04:07:03;;;;;;;4.20;2.85;;;;;;;24.66;57.67;98853.66;4953818;29;20109;-77
2023/06/14 04:09:29;;;;;;;4.45;2.97;;;;;;;24.67;57.52;98849.19;4953529;29;20023;-77
2023/06/14 04:11:55;;;;;;;4.43;3.10;;;;;;;24.65;57.72;98857.31;4954052;28;20027;-77
2023/06/14 04:14:21;;;;;;;4.50;3.00;;;;;;;24.65;57.63;98864.50;4957726;28;20063;-77
2023/06/14 04:16:48;;;;;;;4.00;2.63;;;;;;;24.65;57.54;98867.97;4956409;29;20027;-77
2023/06/14 04:19:13;;;;;;;5.25;3.00;;;;;;;24.64;57.50;98868.97;4957445;29;20395;-77
2023/06/14 04:21:39;;;;;;;4.70;3.25;;;;;;;24.63;57.59;98869.09;4957599;28;20023;-77
2023/06/14 04:24:05;;;;;;;4.97;3.45;;;;;;;24.62;57.87;98870.94;4957173;28;20102;-76
2023/06/14 04:26:33;;;;;;;5.53;3.15;;;;;;;24.58;58.06;98872.16;4957355;29;20110;-76
2023/06/14 04:29:02;;;;;;;4.38;3.20;;;;;;;24.61;57.72;98879.06;4957326;29;20467;-77
2023/06/14 04:31:33;;;;;;;3.90;2.60;;;;;;;24.60;57.71;98875.53;4939722;29;20475;-77
2023/06/14 04:33:59;;;;;;;4.57;2.90;;;;;;;24.60;57.71;98874.69;4957096;29;20031;-77
2023/06/14 04:36:25;;;;;;;4.20;3.17;;;;;;;24.62;57.77;98878.94;4956829;29;20031;-76
2023/06/14 04:38:53;;;;;;;5.20;3.55;;;;;;;24.59;57.53;98879.19;4939697;29;20511;-77
2023/06/14 04:41:20;;;;;;;4.95;3.30;;;;;;;24.59;57.64;98878.34;4956811;29;20027;-77
2023/06/14 04:43:48;;;;;;;4.35;3.30;;;;;;;24.58;57.96;98882.81;4939744;29;20288;-77
2023/06/14 04:46:14;;;;;;;4.57;3.10;;;;;;;24.59;57.79;98879.19;4956867;29;20094;-77
2023/06/14 04:48:42;;;;;;;5.43;3.25;;;;;;;24.58;57.81;98877.50;4956998;29;20027;-77
2023/06/14 04:51:09;;;;;;;5.15;3.65;;;;;;;24.58;57.59;98873.97;4957086;29;20387;-76
2023/06/14 04:53:34;;;;;;;4.68;3.47;;;;;;;24.58;57.49;98874.81;4956595;29;20035;-77
2023/06/14 04:56:00;;;;;;;4.50;3.38;;;;;;;24.57;57.68;98875.81;4956857;28;20568;-77
2023/06/14 04:58:29;;;;;;;5.15;3.60;;;;;;;24.58;58.04;98882.81;4956946;29;20042;-77
2023/06/14 05:00:55;;;;;;;4.78;3.58;;;;;;;24.57;57.63;98886.47;4956812;29;20444;-76
2023/06/14 05:03:23;;;;;;;4.65;3.80;;;;;;;24.58;57.68;98881.97;4956752;28;20042;-77
2023/06/14 05:05:50;;;;;;;4.60;3.50;;;;;;;24.59;57.65;98892.50;4956714;28;20041;-77
2023/06/14 05:08:15;;;;;;;4.38;3.30;;;;;;;24.58;57.60;98888.16;4956311;28;20479;-77
2023/06/14 05:10:41;;;;;;;4.28;3.15;;;;;;;24.60;57.53;98894.19;4956684;28;20019;-77
2023/06/14 05:13:06;;;;;;;4.88;3.58;;;;;;;24.61;57.56;98897.72;4956580;28;20027;-77
2023/06/14 05:15:32;;;;;;;5.38;3.63;;;;;;;24.60;57.69;98890.69;4956347;28;20050;-76
2023/06/14 05:17:57;;;;;;;5.88;3.58;;;;;;;24.57;57.72;98891.81;4956597;29;20031;-77
2023/06/14 05:20:27;;;;;;;5.03;3.85;;;;;;;24.56;57.90;98897.28;4956500;28;20027;-76
2023/06/14 05:22:53;;;;;;;6.03;3.80;;;;;;;24.54;57.67;98902.72;4955903;28;20030;-77
2023/06/14 05:25:22;;;;;;;4.97;3.67;;;;;;;24.56;57.87;98903.47;4955253;28;20027;-77
2023/06/14 05:27:48;;;;;;;5.50;3.78;;;;;;;24.54;57.91;98908.06;4956360;29;20487;-77
2023/06/14 05:30:15;;;;;;;5.47;4.13;;;;;;;24.56;57.75;98915.94;4939117;29;20019;-77
2023/06/14 05:32:41;;;;;;;5.00;4.00;;;;;;;24.53;57.75;98915.22;4955414;28;20090;-77
2023/06/14 05:35:07;;;;;;;5.65;3.90;;;;;;;24.57;57.79;98923.81;4956300;29;20476;-77
2023/06/14 05:37:32;;;;;;;5.13;4.03;;;;;;;24.53;57.69;98922.38;4955844;29;20422;-77
2023/06/14 05:39:57;;;;;;;4.88;3.67;;;;;;;24.55;57.58;98920.41;4955910;29;20031;-77
2023/06/14 05:42:23;;;;;;;5.25;3.78;;;;;;;24.56;57.70;98924.81;4956151;29;20019;-77
2023/06/14 05:44:48;;;;;;;4.90;4.25;;;;;;;24.55;57.67;98925.75;4955802;29;20031;-77
2023/06/14 05:47:14;;;;;;;6.03;4.50;;;;;;;24.54;57.68;98929.41;4938651;29;20069;-77
2023/06/14 05:49:39;;;;;;;5.65;4.60;;;;;;;24.54;57.74;98929.41;4938637;29;20399;-77
2023/06/14 05:52:06;;;;;;;5.50;4.50;;;;;;;24.52;58.09;98932.22;4955595;29;20475;-76
2023/06/14 05:54:31;;;;;;;4.80;3.70;;;;;;;24.51;57.60;98929.69;4955838;29;20037;-77
2023/06/14 05:57:01;;;;;;;6.88;4.40;;;;;;;24.49;57.90;98937.78;4955348;29;20043;-77
2023/06/14 05:59:29;;;;;;;6.38;4.70;;;;;;;24.51;57.71;98940.34;4955643;29;20038;-78
2023/06/14 06:01:54;;;;;;;6.60;4.88;;;;;;;24.51;57.82;98945.69;4955578;29;20537;-77
2023/06/14 06:04:20;;;;;;;5.85;4.63;;;;;;;24.49;57.81;98943.13;4955576;29;20023;-77
2023/06/14 06:06:46;;;;;;;6.75;4.47;;;;;;;24.51;57.86;98959.00;4954963;29;20023;-77
2023/06/14 06:09:12;;;;;;;6.07;4.65;;;;;;;24.50;57.92;98954.66;4955498;29;20023;-77
2023/06/14 06:11:37;;;;;;;6.00;4.72;;;;;;;24.48;57.71;98959.25;4955526;29;20381;-77
2023/06/14 06:14:03;;;;;;;8.20;5.38;;;;;;;24.49;57.63;98958.28;4955485;29;20050;-77
2023/06/14 06:16:28;;;;;;;5.57;4.70;;;;;;;24.46;57.66;98958.53;4955016;29;20031;-77
2023/06/14 06:18:54;;;;;;;6.57;4.40;;;;;;;24.49;57.72;98956.47;4955251;29;20034;-77
2023/06/14 06:21:19;;;;;;;6.68;4.90;;;;;;;24.47;57.62;98960.22;4955109;29;20468;-77
2023/06/14 06:23:44;;;;;;;7.57;4.97;;;;;;;24.48;57.53;98967.25;4955384;29;20031;-77
2023/06/14 06:26:10;;;;;;;7.22;5.32;;;;;;;24.49;57.66;98966.28;4937959;29;20085;-77
2023/06/14 06:28:35;;;;;;;9.50;5.40;;;;;;;24.49;57.64;98968.94;4955372;29;20027;-76
2023/06/14 06:31:01;;;;;;;6.55;5.38;;;;;;;24.48;57.67;98964.59;4954989;28;20476;-77
2023/06/14 06:33:26;;;;;;;7.07;5.57;;;;;;;24.51;57.72;98967.00;4955085;29;20443;-77
2023/06/14 06:35:51;;;;;;;7.85;5.47;;;;;;;24.52;57.75;98974.88;4954243;28;20035;-76
2023/06/14 06:38:18;;;;;;;6.63;5.57;;;;;;;24.47;57.74;98981.56;4955177;29;20391;-77
2023/06/14 06:40:44;;;;;;;6.95;5.65;;;;;;;24.50;57.71;98986.66;4954535;29;20074;-76
2023/06/14 06:43:13;;;;;;;7.13;5.60;;;;;;;24.47;57.78;98987.75;4954924;29;20468;-77
2023/06/14 06:45:39;;;;;;;8.45;6.00;;;;;;;24.48;57.48;98988.59;4954892;29;20034;-77
2023/06/14 06:48:04;;;;;;;6.85;5.80;;;;;;;24.46;57.87;98993.22;4954797;29;20031;-77
2023/06/14 06:50:30;;;;;;;6.95;5.72;;;;;;;24.46;57.82;99002.03;4954464;29;20031;-77
2023/06/14 06:52:55;;;;;;;7.30;5.43;;;;;;;24.45;57.93;99002.19;4954793;29;20031;-77
2023/06/14 06:55:21;;;;;;;7.40;5.72;;;;;;;24.46;57.77;99001.22;4954659;29;20566;-77
2023/06/14 06:57:46;;;;;;;7.18;5.95;;;;;;;24.46;57.77;99006.53;4954506;28;20063;-77
2023/06/14 07:00:12;;;;;;;7.68;6.18;;;;;;;24.49;57.71;99006.28;4954562;28;20038;-77
2023/06/14 07:02:38;;;;;;;6.38;5.32;;;;;;;24.44;57.75;99020.00;4954688;28;20110;-77
2023/06/14 07:05:04;;;;;;;7.07;5.88;;;;;;;24.43;57.88;99014.78;4954311;28;20084;-76
2023/06/14 07:07:29;;;;;;;7.10;6.07;;;;;;;24.43;57.72;99022.78;4954395;28;20027;-77
2023/06/14 07:09:57;;;;;;;6.60;5.55;;;;;;;24.46;57.86;99018.03;4954420;28;20083;-76
2023/06/14 07:12:23;;;;;;;8.45;6.22;;;;;;;24.44;58.01;99024.50;4954515;28;20057;-77
2023/06/14 07:14:48;;;;;;;8.70;6.30;;;;;;;24.44;57.98;99027.19;4954505;28;20078;-76
2023/06/14 07:17:14;;;;;;;6.82;6.03;;;;;;;24.46;57.87;99028.72;4954208;28;20082;-77
2023/06/14 07:19:39;;;;;;;6.47;5.78;;;;;;;24.43;57.83;99033.44;4953933;28;20028;-77
2023/06/14 07:22:04;;;;;;;7.18;5.78;;;;;;;24.44;58.11;99043.16;4954043;29;20023;-77
2023/06/14 07:24:30;;;;;;;9.48;6.50;;;;;;;24.41;57.78;99041.59;4936918;29;20031;-78
2023/06/14 07:26:56;;;;;;;7.78;6.18;;;;;;;24.40;57.84;99035.41;4954106;29;20099;-77
2023/06/14 07:29:21;;;;;;;7.63;6.65;;;;;;;24.42;57.84;99042.44;4954212;29;20034;-77
2023/06/14 07:31:47;;;;;;;7.03;5.80;;;;;;;24.38;57.79;99041.84;4962779;28;20023;-77
2023/06/14 07:34:12;;;;;;;9.30;6.10;;;;;;;24.38;57.81;99037.38;4973438;28;20031;-77
2023/06/14 07:36:38;;;;;;;7.70;6.40;;;;;;;24.39;57.86;99044.38;4973418;28;20395;-77
2023/06/14 07:39:05;;;;;;;7.63;6.47;;;;;;;24.40;57.74;99045.22;4973350;28;20033;-77
2023/06/14 07:41:31;;;;;;;7.88;6.60;;;;;;;24.42;58.02;99047.75;4973339;28;20026;-77
2023/06/14 07:43:56;;;;;;;7.55;6.75;;;;;;;24.40;58.06;99051.41;4955991;28;20027;-77
2023/06/14 07:46:22;;;;;;;8.13;7.07;;;;;;;24.37;57.94;99048.97;4960402;28;20035;-77
2023/06/14 07:48:48;;;;;;;7.55;6.57;;;;;;;24.38;57.89;99055.16;4957817;29;20031;-77
2023/06/14 07:51:13;;;;;;;7.40;6.18;;;;;;;24.35;58.08;99058.94;4958195;29;20027;-77
2023/06/14 07:53:39;;;;;;;8.20;7.00;;;;;;;24.38;58.05;99056.03;4957974;29;20106;-77
2023/06/14 07:56:04;;;;;;;7.32;6.55;;;;;;;24.40;58.08;99061.22;4957728;28;20052;-77
2023/06/14 07:58:30;;;;;;;7.97;6.20;;;;;;;24.40;57.85;99059.41;4958037;29;20027;-77
2023/06/14 08:00:55;;;;;;;8.02;6.88;;;;;;;24.39;58.14;99060.38;4957481;29;20487;-77
2023/06/14 08:03:21;;;;;;;7.53;6.28;;;;;;;24.41;58.05;99068.28;4957984;29;20027;-76
2023/06/14 08:05:47;;;;;;;8.85;7.05;;;;;;;24.42;57.98;99063.75;4957690;29;20484;-77
2023/06/14 08:08:13;;;;;;;7.78;6.50;;;;;;;24.40;57.91;99064.75;4958048;28;20110;-77
2023/06/14 08:10:38;;;;;;;8.07;6.70;;;;;;;24.42;58.04;99066.44;4957656;28;20034;-77
2023/06/14 08:13:04;;;;;;;7.72;6.75;;;;;;;24.40;58.26;99072.75;4957919;28;20107;-77
2023/06/14 08:15:29;;;;;;;9.20;7.30;;;;;;;24.36;58.06;99071.28;4957306;28;20031;-77
2023/06/14 08:17:55;;;;;;;8.88;7.53;;;;;;;24.40;57.80;99070.06;4957521;28;20364;-77
2023/06/14 08:20:20;;;;;;;8.25;6.82;;;;;;;24.39;58.25;99081.72;4957535;28;20035;-77
2023/06/14 08:22:47;;;;;;;8.13;7.10;;;;;;;24.41;58.05;99078.94;4957399;28;20031;-77
2023/06/14 08:25:12;;;;;;;8.25;7.20;;;;;;;24.42;57.79;99080.63;4957426;28;20031;-77
2023/06/14 08:27:38;;;;;;;8.82;6.95;;;;;;;24.39;57.93;99079.06;4957670;28;20392;-77
2023/06/14 08:30:03;;;;;;;7.50;6.78;;;;;;;24.44;57.91;99077.84;4957066;28;20471;-77
2023/06/14 08:32:29;;;;;;;8.48;7.18;;;;;;;24.41;58.06;99084.28;4957212;28;20027;-78
2023/06/14 08:34:54;;;;;;;7.78;6.97;;;;;;;24.39;57.85;99094.19;4957426;29;20377;-77
2023/06/14 08:37:20;;;;;;;9.73;7.15;;;;;;;24.39;58.11;99092.38;4957218;29;20019;-77
2023/06/14 08:39:46;;;;;;;8.82;7.43;;;;;;;24.40;58.06;99098.56;4957376;29;20031;-77
2023/06/14 08:42:14;;;;;;;9.40;7.68;;;;;;;24.40;57.81;99088.75;4957271;29;20019;-77
2023/06/14 08:44:39;;;;;;;8.10;7.28;;;;;;;24.39;57.97;99087.06;4956705;29;20039;-77
2023/06/14 08:47:06;;;;;;;9.70;7.57;;;;;;;24.37;58.04;99088.97;4957122;29;20035;-77
2023/06/14 08:49:33;;;;;;;9.38;7.63;;;;;;;24.40;58.15;99099.41;4956946;29;20032;-76
2023/06/14 08:52:00;;;;;;;9.18;7.55;;;;;;;24.42;58.25;99095.75;4956846;29;20023;-77
2023/06/14 08:54:29;;;;;;;7.93;6.82;;;;;;;24.43;57.98;99097.44;4957006;29;20029;-77
2023/06/14 08:56:57;;;;;;;7.95;6.80;;;;;;;24.43;57.86;99097.44;4956669;29;20419;-77
2023/06/14 08:59:26;;;;;;;8.55;7.50;;;;;;;24.42;58.18;99095.75;4956337;28;20039;-76
2023/06/14 09:01:54;;;;;;;8.70;7.15;;;;;;;24.42;57.91;99093.09;4956869;29;20030;-77
2023/06/14 09:04:21;;;;;;;8.32;7.40;;;;;;;24.42;57.86;99101.97;4956893;29;20082;-77
2023/06/14 09:06:52;;;;;;;9.15;7.55;;;;;;;24.42;58.14;99098.44;4956588;29;20027;-77
2023/06/14 09:09:22;;;;;;;9.27;6.97;;;;;;;24.44;57.83;99104.50;4939186;29;20023;-77
2023/06/14 09:11:49;;;;;;;8.18;7.30;;;;;;;24.45;57.95;99103.53;4956430;29;20110;-77
2023/06/14 09:14:15;;;;;;;8.20;7.32;;;;;;;24.47;57.81;99104.25;4956189;28;20028;-77
2023/06/14 09:16:40;;;;;;;9.73;7.22;;;;;;;24.43;58.10;99100.97;4956446;28;20027;-77
2023/06/14 09:19:05;;;;;;;8.73;7.55;;;;;;;24.44;57.90;99102.66;4956197;28;20030;-77
2023/06/14 09:21:35;;;;;;;9.20;7.35;;;;;;;24.45;57.81;99103.53;4956480;28;20403;-77
2023/06/14 09:24:02;;;;;;;8.02;6.97;;;;;;;24.47;58.06;99105.09;4956506;28;20050;-77
2023/06/14 09:26:27;;;;;;;9.27;8.27;;;;;;;24.47;57.95;99117.56;4956256;28;20114;-76
2023/06/14 09:28:55;;;;;;;9.25;7.50;;;;;;;24.48;57.83;99111.25;4955861;28;20178;-76
2023/06/14 09:31:20;;;;;;;9.52;7.57;;;;;;;24.48;57.71;99112.13;4961442;28;20502;-77
2023/06/14 09:33:48;;;;;;;7.95;7.00;;;;;;;24.46;57.74;99107.88;4975512;28;20031;-77
2023/06/14 09:36:18;;;;;;;8.32;7.18;;;;;;;24.50;57.86;99109.34;4975580;28;20038;-77
2023/06/14 09:39:00;;;;;;;8.82;7.05;;;;;;;24.48;57.86;99111.25;4970042;28;20402;-77
2023/06/14 09:41:33;;;;;;;10.05;7.47;;;;;;;24.47;58.01;99110.44;4969799;28;20030;-77
2023/06/14 09:44:02;;;;;;;10.23;7.15;;;;;;;24.46;57.81;99114.03;4957945;28;20032;-77
2023/06/14 09:46:29;;;;;;;9.27;7.38;;;;;;;24.47;57.93;99120.25;4955734;29;20027;-76
2023/06/14 09:48:54;;;;;;;7.97;6.97;;;;;;;24.47;57.85;99112.25;4955925;29;20078;-77
2023/06/14 09:51:23;;;;;;;8.57;7.45;;;;;;;24.46;57.86;99118.56;4938886;29;20031;-77
2023/06/14 09:53:52;;;;;;;9.25;8.18;;;;;;;24.47;57.83;99125.56;4955906;29;20027;-77
2023/06/14 09:56:30;;;;;;;8.88;7.30;;;;;;;24.47;58.08;99130.91;4968912;28;20392;-77
2023/06/14 09:58:57;;;;;;;9.15;7.45;;;;;;;24.49;57.71;99128.97;4973623;28;20031;-76
2023/06/14 10:01:27;;;;;;;9.15;7.90;;;;;;;24.49;58.20;99126.28;4955436;28;20038;-76
2023/06/14 10:04:05;;;;;;;9.82;7.70;;;;;;;24.51;58.06;99137.69;4955288;29;20114;-77
2023/06/14 10:06:31;;;;;;;8.20;7.30;;;;;;;24.50;58.03;99115.50;4954966;29;20031;-77
2023/06/14 10:09:01;;;;;;;7.97;7.18;;;;;;;24.53;58.10;99125.06;4955416;29;20395;-77
2023/06/14 10:11:27;;;;;;;9.23;7.32;;;;;;;24.52;58.15;99123.38;4954439;29;20543;-77
2023/06/14 10:13:57;;;;;;;8.52;7.63;;;;;;;24.53;57.76;99125.06;4963975;28;20078;-77
2023/06/14 10:16:26;;;;;;;11.05;7.82;;;;;;;24.54;57.68;99113.44;4955311;29;20117;-77
2023/06/14 10:19:14;;;;;;;10.32;8.05;;;;;;;24.56;57.82;99119.50;4955192;29;20484;-77
2023/06/14 10:22:01;;;;;;;8.93;6.90;;;;;;;24.57;57.94;99120.34;4955164;29;20539;-77
2023/06/14 10:24:33;;;;;;;8.45;7.28;;;;;;;24.58;57.92;99117.53;4937908;29;20122;-76
2023/06/14 10:27:00;;;;;;;10.20;8.23;;;;;;;24.58;57.87;99120.22;4954768;29;20115;-77
2023/06/14 10:29:31;;;;;;;10.18;7.75;;;;;;;24.58;57.62;99114.88;4955177;29;20042;-77
2023/06/14 10:31:58;;;;;;;9.02;7.70;;;;;;;24.58;57.62;99114.88;4954939;28;20054;-77
2023/06/14 10:34:25;;;;;;;10.55;8.05;;;;;;;24.60;57.66;99114.75;4954963;29;20082;-77
2023/06/14 10:37:10;;;;;;;9.32;7.55;;;;;;;24.62;57.69;99115.47;4955014;29;20066;-77
2023/06/14 10:39:45;;;;;;;10.50;8.70;;;;;;;24.64;57.77;99117.03;4954350;29;20058;-77
2023/06/14 10:42:11;;;;;;;11.30;8.27;;;;;;;24.64;57.76;99117.03;4954338;29;20034;-77
2023/06/14 10:44:37;;;;;;;11.10;8.13;;;;;;;24.65;57.42;99113.41;4954807;29;20029;-77
2023/06/14 10:47:06;;;;;;;10.93;8.52;;;;;;;24.66;57.71;99120.41;4954619;29;20446;-77
2023/06/14 10:49:42;;;;;;;9.95;7.88;;;;;;;24.69;57.65;99113.97;4954356;29;20502;-77
2023/06/14 10:52:16;;;;;;;11.05;9.05;;;;;;;24.70;57.70;99114.84;4954117;29;20380;-77
2023/06/14 10:55:18;;;;;;;8.82;7.80;;;;;;;24.71;57.59;99117.41;4954277;29;20051;-77
2023/06/14 10:57:52;;;;;;;11.95;8.93;;;;;;;24.71;57.50;99112.06;4914069;29;20051;-77
2023/06/14 11:00:24;;;;;;;9.57;8.15;;;;;;;24.72;57.61;99115.56;4914269;29;20607;-77
2023/06/14 11:03:13;;;;;;;10.65;8.60;;;;;;;24.72;57.87;99113.75;4914064;29;20382;-76
2023/06/14 11:05:47;;;;;;;11.63;8.98;;;;;;;24.73;57.51;99109.25;4914126;29;20032;-77
2023/06/14 11:08:40;;;;;;;9.65;8.48;;;;;;;24.73;57.51;99109.25;4913858;29;20039;-78
2023/06/14 11:11:07;;;;;;;10.35;8.82;;;;;;;24.75;57.57;99117.97;4913612;29;20032;-78
2023/06/14 11:13:33;;;;;;;9.32;8.32;;;;;;;24.75;57.46;99116.16;4913783;29;20449;-77
2023/06/14 11:15:58;;;;;;;10.55;8.10;;;;;;;24.76;57.58;99117.00;4914066;29;20036;-77
2023/06/14 11:18:24;;;;;;;9.80;8.27;;;;;;;24.77;57.28;99116.03;4913963;29;20036;-76
2023/06/14 11:20:50;;;;;;;9.40;8.07;;;;;;;24.77;57.45;99116.88;4913861;29;20052;-77
2023/06/14 11:23:16;;;;;;;10.38;8.70;;;;;;;24.78;57.61;99121.25;4913708;29;20055;-77
2023/06/14 11:25:41;;;;;;;11.65;8.77;;;;;;;24.78;57.66;99110.56;4913309;29;20032;-77
2023/06/14 11:28:07;;;;;;;8.75;7.85;;;;;;;24.79;57.32;99112.25;4913758;29;20044;-77
2023/06/14 11:30:32;;;;;;;9.80;7.93;;;;;;;24.81;57.76;99117.50;4913895;29;20111;-77
2023/06/14 11:32:58;;;;;;;9.20;7.85;;;;;;;24.81;57.74;99106.84;4914545;29;20870;-77